Lomond, Canada
Current Conditions -  °F | °C
As of 6:00 PM on Friday 28 Nov 2014 (Local Time) from CYDF Reporting Station
Overcast Overcast  
Wind Chill: 25°   Ceiling: 2500
Heat Index: 25°   Visibility: 15mi
Dew Point: 21°   Wind: 3mph
Humidity: 86%   Direction: 350°N
Pressure: 29.91"   Gusts: NA
Location:  49.45°N, 57.93°W
Report Text: CYDF 282100Z 35003KT 15SM OVC025 M04/M06 A2991 RMK SC8 SLP131
Loading
Personal Weather Stations






























Interactive Weather Map New forecast layout! Learn more

10-Day Weather Forecast

Advertisements
Track Severe Weather on mobile